Lynn Haven, Florida
Current Conditions -  °F | °C
As of 7:53 PM on Monday 20 Oct 2014 (Local Time) from KECP Reporting Station
Clear Clear  
Wind Chill: 66°   Ceiling: Unl
Heat Index: 66°   Visibility: 10mi
Dew Point: 61°   Wind: 5mph
Humidity: 84%   Direction: 310°NW
Pressure: 29.98"   Gusts: NA
Location:  30.24°N, 85.65°W
Report Text: KECP 210053Z 31004KT 10SM CLR 19/16 A2998 RMK AO2 SLP162 T01890161
Loading
Personal Weather Stations






























Interactive Weather Map
Tropical Storm Tracking
New forecast layout! Learn more

10-Day Weather Forecast

Advertisements
Track Severe Weather on mobile